Time;durP1;ratioP1;P1;durP2;ratioP2;P2;SDS_P1;SDS_P2;PMS_P1;PMS_P2;Temp;Humidity;BMP_temperature;BMP_pressure;BME280_temperature;BME280_humidity;BME280_pressure;Samples;Min_cycle;Max_cycle;Signal;HPM_P1;HPM_P2
2023/12/05 00:00:25;;;;;;;16.10;11.25;;;;;;;3.21;80.40;99383.22;4140157;28;20045;-67
2023/12/05 00:02:28;;;;;;;19.02;11.93;;;;;;;3.20;80.60;99384.03;4129463;28;20478;-67
2023/12/05 00:04:31;;;;;;;16.63;11.98;;;;;;;3.23;80.83;99384.13;4129608;28;20089;-67
2023/12/05 00:06:36;;;;;;;17.77;12.38;;;;;;;3.31;80.88;99380.03;4127345;28;20034;-66
2023/12/05 00:08:40;;;;;;;18.52;12.88;;;;;;;3.29;80.60;99379.16;4128984;28;20149;-66
2023/12/05 00:10:44;;;;;;;17.98;12.10;;;;;;;3.37;80.83;99371.63;4130066;28;20073;-66
2023/12/05 00:12:47;;;;;;;16.10;11.90;;;;;;;3.26;80.95;99373.94;4127033;28;20042;-66
2023/12/05 00:14:50;;;;;;;16.58;11.68;;;;;;;3.28;80.34;99373.13;4129164;28;20040;-66
2023/12/05 00:16:53;;;;;;;18.70;11.55;;;;;;;3.31;80.81;99377.47;4124102;28;20113;-66
2023/12/05 00:18:57;;;;;;;18.65;11.50;;;;;;;3.27;80.77;99367.94;4124966;28;20046;-66
2023/12/05 00:21:00;;;;;;;16.73;10.48;;;;;;;3.26;80.77;99372.22;4123686;28;20231;-66
2023/12/05 00:23:02;;;;;;;20.90;13.23;;;;;;;3.28;80.42;99380.81;4122014;28;20512;-66
2023/12/05 00:25:07;;;;;;;19.67;13.07;;;;;;;3.30;80.93;99388.56;4129298;28;20034;-67
2023/12/05 00:27:12;;;;;;;18.48;12.48;;;;;;;3.27;80.88;99386.81;4109758;28;20121;-67
2023/12/05 00:29:15;;;;;;;17.98;11.90;;;;;;;3.30;81.01;99388.56;4142966;28;20033;-67
2023/12/05 00:31:18;;;;;;;19.30;12.82;;;;;;;3.36;81.40;99388.75;4121749;28;20038;-66
2023/12/05 00:33:21;;;;;;;18.10;12.05;;;;;;;3.33;81.15;99386.13;4125709;28;20399;-66
2023/12/05 00:35:25;;;;;;;18.40;12.20;;;;;;;3.37;80.97;99387.03;4124469;28;20101;-66
2023/12/05 00:37:28;;;;;;;21.85;14.30;;;;;;;3.32;81.23;99374.94;4126033;28;20041;-66
2023/12/05 00:39:31;;;;;;;20.83;12.80;;;;;;;3.32;80.80;99379.22;4127447;28;20057;-66
2023/12/05 00:41:33;;;;;;;18.25;11.52;;;;;;;3.31;81.42;99383.50;4126593;28;20507;-67
2023/12/05 00:43:37;;;;;;;20.10;14.45;;;;;;;3.35;81.10;99384.44;4119303;28;20126;-66
2023/12/05 00:45:40;;;;;;;16.75;11.55;;;;;;;3.39;80.68;99376.00;4127042;28;20133;-66
2023/12/05 00:47:43;;;;;;;19.20;12.88;;;;;;;3.37;81.05;99374.19;4129643;28;20034;-66
2023/12/05 00:49:47;;;;;;;16.10;11.75;;;;;;;3.43;81.32;99376.91;4127982;28;20038;-66
2023/12/05 00:51:50;;;;;;;24.02;12.68;;;;;;;3.36;80.78;99387.88;4141718;28;20053;-66
2023/12/05 00:53:53;;;;;;;17.73;12.43;;;;;;;3.39;81.39;99378.56;4128006;28;20104;-66
2023/12/05 00:55:54;;;;;;;20.20;13.40;;;;;;;3.41;81.14;99379.44;4129651;28;20039;-66
2023/12/05 00:57:58;;;;;;;17.38;11.85;;;;;;;3.42;81.01;99375.19;4127078;28;20054;-66
2023/12/05 01:00:05;;;;;;;17.27;12.55;;;;;;;3.41;81.08;99378.59;4126941;28;20042;-66
2023/12/05 01:02:09;;;;;;;18.83;12.43;;;;;;;3.38;81.21;99365.69;4143334;28;20057;-66
2023/12/05 01:04:12;;;;;;;19.48;13.63;;;;;;;3.35;81.47;99373.31;4128661;28;20449;-66
2023/12/05 01:06:15;;;;;;;17.83;12.10;;;;;;;3.30;81.56;99378.31;4121256;28;20420;-66
2023/12/05 01:08:18;;;;;;;17.20;12.65;;;;;;;3.33;81.59;99365.56;4124438;28;20069;-66
2023/12/05 01:10:21;;;;;;;15.93;10.80;;;;;;;3.29;81.88;99379.16;4128255;28;20042;-66
2023/12/05 01:12:24;;;;;;;19.15;12.88;;;;;;;3.36;81.77;99386.19;4121779;28;20089;-66
2023/12/05 01:14:34;;;;;;;19.38;13.57;;;;;;;3.42;81.25;99381.19;4124918;28;20050;-66
2023/12/05 01:16:43;;;;;;;21.30;13.70;;;;;;;3.39;81.07;99376.00;4125708;28;20137;-66
2023/12/05 01:18:45;;;;;;;18.48;12.57;;;;;;;3.44;80.76;99386.38;4127216;28;20591;-66
2023/12/05 01:20:48;;;;;;;19.58;13.18;;;;;;;3.41;80.72;99379.44;4126860;28;20077;-66
2023/12/05 01:22:51;;;;;;;25.73;13.27;;;;;;;3.34;81.68;99392.97;4128014;28;20041;-66
2023/12/05 01:24:55;;;;;;;20.10;12.77;;;;;;;3.33;81.67;99396.38;4125892;28;20476;-66
2023/12/05 01:26:58;;;;;;;17.45;12.57;;;;;;;3.31;82.03;99398.03;4126295;28;20049;-66
2023/12/05 01:29:02;;;;;;;18.88;11.48;;;;;;;3.35;82.30;99407.56;4124231;28;20044;-66
2023/12/05 01:31:06;;;;;;;16.52;11.32;;;;;;;3.32;82.07;99397.22;4125926;28;20046;-66
2023/12/05 01:33:10;;;;;;;20.90;13.75;;;;;;;3.38;81.68;99399.94;4124609;28;20043;-66
2023/12/05 01:35:13;;;;;;;22.48;13.43;;;;;;;3.41;82.05;99389.72;4121258;28;20147;-66
2023/12/05 01:37:16;;;;;;;18.20;12.35;;;;;;;3.43;82.09;99392.34;4120440;28;20710;-66
2023/12/05 01:39:20;;;;;;;17.33;12.88;;;;;;;3.40;82.08;99390.59;4126339;28;20046;-66
2023/12/05 01:41:23;;;;;;;19.77;12.82;;;;;;;3.45;82.00;99383.84;4127246;28;20034;-66
2023/12/05 01:43:26;;;;;;;19.75;12.50;;;;;;;3.44;81.93;99384.66;4124661;28;20519;-66
2023/12/05 01:45:29;;;;;;;17.70;12.07;;;;;;;3.41;82.54;99391.44;4127459;28;20034;-67
2023/12/05 01:47:35;;;;;;;21.15;12.98;;;;;;;3.47;82.25;99389.88;4126717;28;20425;-66
2023/12/05 01:49:41;;;;;;;25.08;12.70;;;;;;;3.47;82.10;99387.31;4128531;28;20501;-66
2023/12/05 01:51:44;;;;;;;16.77;12.63;;;;;;;3.45;81.75;99396.69;4127687;28;20167;-66
2023/12/05 01:53:48;;;;;;;18.85;13.15;;;;;;;3.39;82.59;99396.53;4125362;28;20129;-67
2023/12/05 01:55:51;;;;;;;20.60;13.48;;;;;;;3.39;82.83;99382.81;4128831;28;20588;-66
2023/12/05 01:57:55;;;;;;;18.30;12.00;;;;;;;3.44;82.79;99379.53;4128091;28;20064;-66
2023/12/05 01:59:59;;;;;;;22.17;12.00;;;;;;;3.46;82.65;99374.44;4120136;28;20066;-66
2023/12/05 02:02:01;;;;;;;19.23;13.57;;;;;;;3.47;82.74;99373.59;4128696;28;20466;-66
2023/12/05 02:04:05;;;;;;;19.95;13.77;;;;;;;3.44;82.63;99374.38;4124248;28;20062;-66
2023/12/05 02:06:11;;;;;;;18.02;12.60;;;;;;;3.43;83.19;99371.78;4127768;28;20038;-66
2023/12/05 02:08:17;;;;;;;17.85;12.02;;;;;;;3.46;83.14;99375.31;4122825;28;20037;-66
2023/12/05 02:10:21;;;;;;;16.77;12.05;;;;;;;3.54;82.63;99364.38;4125061;28;20413;-66
2023/12/05 02:12:24;;;;;;;21.58;14.25;;;;;;;3.54;82.66;99372.06;4128058;28;20440;-66
2023/12/05 02:14:26;;;;;;;22.70;13.98;;;;;;;3.52;82.92;99366.00;4121345;28;20596;-67
2023/12/05 02:16:35;;;;;;;23.05;14.82;;;;;;;3.48;83.16;99376.22;4125695;28;20065;-66
2023/12/05 02:18:46;;;;;;;21.40;14.40;;;;;;;3.48;83.17;99377.91;4124883;28;20298;-66
2023/12/05 02:20:54;;;;;;;18.75;13.05;;;;;;;3.51;83.04;99367.72;4125526;28;20550;-66
2023/12/05 02:23:26;;;;;;;20.77;14.40;;;;;;;3.52;83.14;99366.91;4123440;28;20483;-66
2023/12/05 02:25:52;;;;;;;17.30;12.30;;;;;;;3.51;82.79;99374.56;4127992;28;20042;-67
2023/12/05 02:27:59;;;;;;;17.17;12.30;;;;;;;3.59;83.13;99373.03;4117537;28;20064;-66
2023/12/05 02:30:04;;;;;;;21.00;14.52;;;;;;;3.54;82.77;99369.50;4126898;28;20050;-66
2023/12/05 02:32:06;;;;;;;16.52;11.73;;;;;;;3.52;82.90;99391.69;4124992;28;20066;-66
2023/12/05 02:34:11;;;;;;;18.55;12.57;;;;;;;3.53;83.25;99367.75;4120311;28;20034;-66
2023/12/05 02:36:20;;;;;;;21.75;13.77;;;;;;;3.59;82.77;99367.91;4125021;28;20038;-66
2023/12/05 02:38:33;;;;;;;18.08;13.32;;;;;;;3.55;82.28;99371.22;4127191;28;20564;-66
2023/12/05 02:40:42;;;;;;;19.52;13.50;;;;;;;3.54;82.57;99361.78;4127944;28;20045;-66
2023/12/05 02:42:48;;;;;;;17.92;12.50;;;;;;;3.49;82.78;99367.69;4129944;28;20042;-66
2023/12/05 02:44:53;;;;;;;15.90;11.07;;;;;;;3.58;82.46;99366.19;4129054;28;20042;-66
2023/12/05 02:46:59;;;;;;;17.00;11.93;;;;;;;3.41;82.36;99364.03;4130046;28;20112;-66
2023/12/05 02:49:03;;;;;;;16.42;11.35;;;;;;;3.37;82.18;99367.34;4127688;28;20045;-66
2023/12/05 02:51:06;;;;;;;19.17;12.30;;;;;;;3.39;82.92;99365.72;4131220;28;20089;-67
2023/12/05 02:53:09;;;;;;;16.30;11.73;;;;;;;3.45;82.75;99372.72;4128053;28;20489;-67
2023/12/05 02:55:11;;;;;;;17.02;11.05;;;;;;;3.44;82.00;99370.97;4131395;28;20046;-67
2023/12/05 02:57:14;;;;;;;15.95;11.98;;;;;;;3.42;82.21;99376.06;4127495;28;20096;-67
2023/12/05 02:59:17;;;;;;;18.75;11.90;;;;;;;3.40;82.59;99371.72;4114025;28;20046;-66
2023/12/05 03:01:21;;;;;;;18.40;11.52;;;;;;;3.35;82.61;99381.00;4129061;28;20473;-67
2023/12/05 03:03:24;;;;;;;15.93;12.05;;;;;;;3.39;82.62;99378.56;4129890;28;20097;-67
2023/12/05 03:05:27;;;;;;;19.92;12.25;;;;;;;3.37;82.53;99384.47;4126561;28;20062;-67
2023/12/05 03:07:29;;;;;;;15.52;10.60;;;;;;;3.43;82.28;99379.50;4129890;28;20049;-67
2023/12/05 03:09:32;;;;;;;18.23;13.38;;;;;;;3.39;82.61;99369.97;4129455;28;20078;-67
2023/12/05 03:11:35;;;;;;;17.48;12.73;;;;;;;3.47;82.14;99378.75;4125423;28;20034;-67
2023/12/05 03:13:39;;;;;;;18.80;13.10;;;;;;;3.42;82.78;99370.91;4127759;28;20042;-67
2023/12/05 03:15:42;;;;;;;22.55;14.48;;;;;;;3.44;82.66;99374.38;4130231;28;20045;-67
2023/12/05 03:17:46;;;;;;;18.40;12.50;;;;;;;3.46;82.71;99387.28;4128092;28;20101;-66
2023/12/05 03:19:49;;;;;;;;;;;;;;;3.42;82.45;99381.19;4126342;28;20454;-66
2023/12/05 03:21:54;;;;;;;17.98;11.63;;;;;;;3.45;82.61;99378.69;4114243;28;19928;-66
2023/12/05 03:23:57;;;;;;;19.27;13.05;;;;;;;3.41;82.53;99376.88;4129974;28;20046;-66
2023/12/05 03:26:01;;;;;;;18.08;13.50;;;;;;;3.39;83.27;99385.38;4130587;28;20408;-66
2023/12/05 03:28:07;;;;;;;21.05;14.35;;;;;;;3.42;83.09;99381.19;4125300;28;20047;-66
2023/12/05 03:30:11;;;;;;;18.45;13.88;;;;;;;3.51;83.18;99374.56;4129666;28;20042;-66
2023/12/05 03:32:14;;;;;;;20.15;14.82;;;;;;;3.47;83.33;99371.03;4130296;28;20038;-66
2023/12/05 03:34:19;;;;;;;20.88;13.88;;;;;;;3.58;82.68;99376.47;4129999;28;20116;-66
2023/12/05 03:36:21;;;;;;;18.05;13.45;;;;;;;3.58;82.49;99379.03;4127614;28;20050;-66
2023/12/05 03:38:24;;;;;;;20.23;13.23;;;;;;;3.57;82.65;99382.41;4129693;28;20030;-66
2023/12/05 03:40:27;;;;;;;18.02;13.27;;;;;;;3.56;83.24;99391.81;4127354;28;20101;-66
2023/12/05 03:42:31;;;;;;;21.45;15.43;;;;;;;3.60;82.87;99396.19;4130251;28;20576;-66
2023/12/05 03:44:34;;;;;;;19.98;12.70;;;;;;;3.60;82.90;99388.50;4129596;28;20448;-66
2023/12/05 03:46:37;;;;;;;21.35;15.30;;;;;;;3.59;83.17;99397.06;4125331;28;20374;-66
2023/12/05 03:48:40;;;;;;;22.00;13.80;;;;;;;3.64;83.27;99398.03;4127893;28;20482;-66
2023/12/05 03:50:44;;;;;;;19.08;12.68;;;;;;;3.62;83.35;99406.50;4123010;28;20564;-67
2023/12/05 03:52:47;;;;;;;19.33;12.70;;;;;;;3.64;83.59;99399.72;4125775;28;20121;-67
2023/12/05 03:54:50;;;;;;;18.55;13.07;;;;;;;3.66;83.46;99401.53;4128105;28;20546;-66
2023/12/05 03:56:53;;;;;;;19.15;13.93;;;;;;;3.67;83.27;99403.22;4113866;28;20560;-66
2023/12/05 03:58:56;;;;;;;16.42;12.00;;;;;;;3.70;83.31;99405.00;4117865;28;20039;-67
2023/12/05 04:00:59;;;;;;;19.38;13.23;;;;;;;3.73;83.25;99407.66;4128599;28;20049;-67
2023/12/05 04:03:02;;;;;;;17.40;12.20;;;;;;;3.79;83.26;99405.22;4127214;28;20046;-67
2023/12/05 04:05:07;;;;;;;19.65;13.65;;;;;;;3.79;83.10;99400.09;4131042;28;20511;-67
2023/12/05 04:07:11;;;;;;;;;;;;;;;3.76;83.35;99402.59;4122572;28;20042;-67
2023/12/05 04:09:14;;;;;;;19.55;12.95;;;;;;;3.78;83.35;99406.09;4123612;28;19965;-67
2023/12/05 04:11:18;;;;;;;18.95;12.93;;;;;;;3.77;83.35;99412.06;4125210;28;20039;-67
2023/12/05 04:13:21;;;;;;;17.40;12.27;;;;;;;3.90;83.23;99409.75;4127502;28;20053;-67
2023/12/05 04:15:32;;;;;;;18.80;12.30;;;;;;;3.91;83.09;99414.09;4128200;28;20512;-67
2023/12/05 04:17:35;;;;;;;18.40;12.20;;;;;;;3.86;83.48;99406.25;4123738;28;20042;-67
2023/12/05 04:19:37;;;;;;;13.88;9.98;;;;;;;3.91;83.55;99409.81;4124768;28;20049;-67
2023/12/05 04:21:40;;;;;;;19.58;13.18;;;;;;;3.92;83.55;99414.13;4125964;28;20040;-67
2023/12/05 04:23:44;;;;;;;18.13;10.75;;;;;;;4.01;83.44;99409.19;4126056;28;20042;-67
2023/12/05 04:25:47;;;;;;;15.95;11.10;;;;;;;4.02;83.54;99404.94;4125967;28;20109;-67
2023/12/05 04:27:50;;;;;;;13.77;9.77;;;;;;;4.07;83.19;99405.88;4131636;28;20034;-67
2023/12/05 04:29:53;;;;;;;16.23;10.95;;;;;;;4.06;83.44;99391.31;4127429;28;20653;-67
2023/12/05 04:31:55;;;;;;;14.77;10.38;;;;;;;4.13;83.47;99393.19;4125031;28;20145;-67
2023/12/05 04:33:58;;;;;;;13.52;9.93;;;;;;;4.15;83.56;99386.38;4123301;28;20486;-67
2023/12/05 04:36:02;;;;;;;14.88;9.75;;;;;;;4.21;83.76;99388.22;4121510;28;20038;-67
2023/12/05 04:38:05;;;;;;;13.70;9.38;;;;;;;4.29;84.23;99386.69;4125925;28;20042;-67
2023/12/05 04:40:10;;;;;;;14.07;9.77;;;;;;;4.26;83.98;99393.47;4127847;28;20082;-67
2023/12/05 04:42:13;;;;;;;14.75;9.65;;;;;;;4.28;84.15;99381.47;4127017;28;20043;-67
2023/12/05 04:44:16;;;;;;;12.75;9.35;;;;;;;4.26;84.18;99394.31;4129853;28;20060;-66
2023/12/05 04:46:19;;;;;;;14.77;10.50;;;;;;;4.25;84.55;99392.59;4122659;28;20042;-66
2023/12/05 04:48:21;;;;;;;14.00;9.43;;;;;;;4.27;84.37;99390.06;4127698;28;20069;-66
2023/12/05 04:50:24;;;;;;;17.08;10.00;;;;;;;4.27;84.77;99395.19;4128004;28;20042;-67
2023/12/05 04:52:27;;;;;;;14.65;9.38;;;;;;;4.29;84.89;99399.56;4126263;28;20066;-67
2023/12/05 04:54:30;;;;;;;15.95;10.10;;;;;;;4.36;84.83;99397.97;4124991;28;20048;-67
2023/12/05 04:56:34;;;;;;;14.40;9.40;;;;;;;4.42;84.22;99395.53;4124188;28;20043;-67
2023/12/05 04:58:36;;;;;;;15.32;10.80;;;;;;;4.36;84.48;99396.25;4119535;28;20105;-66
2023/12/05 05:00:39;;;;;;;12.38;8.68;;;;;;;4.39;84.47;99399.75;4126877;28;20121;-66
2023/12/05 05:02:42;;;;;;;16.60;10.27;;;;;;;4.39;84.82;99400.59;4125141;28;20298;-66
2023/12/05 05:04:45;;;;;;;15.45;10.38;;;;;;;4.41;84.83;99393.81;4124033;28;20095;-66
2023/12/05 05:06:48;;;;;;;12.93;9.05;;;;;;;4.38;84.74;99398.91;4126173;28;20069;-66
2023/12/05 05:08:51;;;;;;;12.65;8.65;;;;;;;4.43;84.93;99396.41;4125778;28;20073;-66
2023/12/05 05:10:54;;;;;;;15.40;9.40;;;;;;;4.39;85.01;99403.19;4122291;28;20074;-66
2023/12/05 05:12:58;;;;;;;14.50;9.40;;;;;;;4.46;84.97;99410.19;4116108;28;20121;-66
2023/12/05 05:15:02;;;;;;;12.20;8.55;;;;;;;4.56;84.81;99406.13;4127698;28;20747;-66
2023/12/05 05:17:07;;;;;;;15.55;10.63;;;;;;;4.47;84.93;99411.09;4129157;28;20038;-66
2023/12/05 05:19:10;;;;;;;15.07;8.82;;;;;;;4.41;85.07;99409.25;4126936;28;20066;-66
2023/12/05 05:21:13;;;;;;;12.82;9.68;;;;;;;4.44;85.18;99409.31;4123534;28;20196;-66
2023/12/05 05:23:16;;;;;;;16.90;9.82;;;;;;;4.42;85.26;99410.97;4119156;28;20034;-66
2023/12/05 05:25:19;;;;;;;15.43;11.27;;;;;;;4.41;85.50;99413.50;4125748;28;20132;-66
2023/12/05 05:27:22;;;;;;;16.98;12.35;;;;;;;4.40;85.52;99410.06;4123383;28;20038;-66
2023/12/05 05:29:26;;;;;;;14.98;11.75;;;;;;;4.42;85.05;99408.38;4124463;28;20026;-66
2023/12/05 05:31:29;;;;;;;17.38;11.13;;;;;;;4.39;85.25;99415.19;4126153;28;20049;-66
2023/12/05 05:33:31;;;;;;;14.60;9.15;;;;;;;4.42;85.28;99415.25;4123604;28;20038;-65
2023/12/05 05:35:34;;;;;;;15.82;10.80;;;;;;;4.48;85.18;99410.22;4126059;28;20038;-65
2023/12/05 05:37:36;;;;;;;13.65;10.02;;;;;;;4.45;85.26;99416.16;4128317;28;20038;-65
2023/12/05 05:39:39;;;;;;;17.45;11.95;;;;;;;4.46;85.21;99411.91;4122735;28;20057;-65
2023/12/05 05:41:42;;;;;;;14.25;10.00;;;;;;;4.44;85.23;99414.47;4128565;28;20129;-65
2023/12/05 05:43:45;;;;;;;16.13;11.93;;;;;;;4.47;85.08;99418.81;4129957;28;20042;-65
2023/12/05 05:45:49;;;;;;;16.85;11.20;;;;;;;4.54;85.02;99418.06;4124600;28;20467;-65
2023/12/05 05:47:52;;;;;;;15.70;10.60;;;;;;;4.53;84.83;99419.78;4123622;28;20050;-65
2023/12/05 05:49:57;;;;;;;17.80;10.48;;;;;;;4.51;84.81;99424.06;4125019;28;21993;-65
2023/12/05 05:52:00;;;;;;;15.40;10.18;;;;;;;4.49;84.84;99420.56;4122844;28;20549;-65
2023/12/05 05:54:03;;;;;;;14.77;10.38;;;;;;;4.51;84.82;99436.91;4114162;28;20129;-65
2023/12/05 05:56:07;;;;;;;15.13;10.35;;;;;;;4.51;85.08;99425.72;4126776;28;20039;-65
2023/12/05 05:58:11;;;;;;;15.53;10.80;;;;;;;4.53;84.73;99422.38;4125188;28;21177;-65
2023/12/05 06:00:15;;;;;;;14.60;10.23;;;;;;;4.51;84.77;99426.63;4122469;28;20112;-65
2023/12/05 06:02:19;;;;;;;15.85;11.18;;;;;;;4.60;84.63;99425.97;4141261;28;20042;-65
2023/12/05 06:04:22;;;;;;;14.68;10.23;;;;;;;4.57;84.08;99419.84;4129358;28;20088;-65
2023/12/05 06:06:25;;;;;;;14.45;9.63;;;;;;;4.50;84.71;99432.59;4127340;28;20045;-65
2023/12/05 06:08:28;;;;;;;15.65;10.23;;;;;;;4.49;84.84;99423.13;4130227;28;20042;-65
2023/12/05 06:10:31;;;;;;;12.75;8.20;;;;;;;4.60;84.55;99430.22;4129645;28;20092;-65
2023/12/05 06:12:34;;;;;;;8.05;5.20;;;;;;;4.55;84.83;99417.25;4122431;28;20130;-65
2023/12/05 06:14:37;;;;;;;12.27;6.72;;;;;;;4.60;84.97;99420.81;4129403;28;20125;-65
2023/12/05 06:16:40;;;;;;;9.73;5.60;;;;;;;4.64;85.03;99421.72;4128981;28;20062;-65
2023/12/05 06:18:44;;;;;;;11.02;6.18;;;;;;;4.70;84.96;99419.28;4129654;28;20272;-65
2023/12/05 06:20:51;;;;;;;9.75;5.38;;;;;;;4.77;84.74;99423.72;4128858;28;20038;-64
2023/12/05 06:22:54;;;;;;;10.32;5.30;;;;;;;4.69;84.82;99421.00;4126058;28;20113;-64
2023/12/05 06:24:57;;;;;;;9.77;5.20;;;;;;;4.73;85.05;99432.22;4122857;28;20124;-65
2023/12/05 06:27:00;;;;;;;11.15;4.95;;;;;;;4.70;85.19;99427.00;4128931;28;20121;-65
2023/12/05 06:29:05;;;;;;;11.45;5.30;;;;;;;4.81;84.90;99429.81;4127594;28;20125;-65
2023/12/05 06:31:09;;;;;;;7.53;4.03;;;;;;;4.89;84.54;99430.81;4122574;28;20452;-64
2023/12/05 06:33:11;;;;;;;7.82;4.38;;;;;;;4.86;84.58;99436.81;4125851;28;20092;-65
2023/12/05 06:35:16;;;;;;;8.02;4.40;;;;;;;4.84;84.86;99438.47;4129036;28;20048;-65
2023/12/05 06:37:20;;;;;;;9.55;4.80;;;;;;;4.85;84.89;99444.50;4127719;28;20509;-65
2023/12/05 06:39:25;;;;;;;6.63;3.72;;;;;;;4.87;84.93;99446.25;4127848;28;20057;-65
2023/12/05 06:41:28;;;;;;;7.22;3.75;;;;;;;4.84;84.81;99446.19;4129321;28;20504;-65
2023/12/05 06:43:31;;;;;;;7.75;4.38;;;;;;;4.86;84.94;99454.84;4127333;28;20046;-65
2023/12/05 06:45:35;;;;;;;6.18;3.40;;;;;;;4.90;84.96;99451.47;4129832;28;20062;-65
2023/12/05 06:47:38;;;;;;;9.73;4.10;;;;;;;4.90;84.86;99455.75;4129023;28;20057;-65
2023/12/05 06:49:42;;;;;;;8.53;4.47;;;;;;;4.96;84.78;99460.16;4130209;28;20031;-65
2023/12/05 06:51:47;;;;;;;6.82;3.53;;;;;;;5.04;84.40;99458.63;4128701;28;20081;-65
2023/12/05 06:53:50;;;;;;;8.70;3.95;;;;;;;4.95;84.63;99456.72;4128258;28;20512;-65
2023/12/05 06:55:54;;;;;;;6.45;3.83;;;;;;;4.97;84.59;99451.59;4128244;28;20050;-65
2023/12/05 06:57:57;;;;;;;7.80;4.40;;;;;;;4.99;84.61;99455.06;4125363;28;20054;-65
2023/12/05 06:59:59;;;;;;;8.00;4.00;;;;;;;4.99;84.51;99455.06;4123383;28;20058;-66
2023/12/05 07:02:02;;;;;;;7.80;4.70;;;;;;;5.04;84.49;99451.75;4127956;28;20076;-64
2023/12/05 07:04:05;;;;;;;7.38;4.22;;;;;;;5.08;84.03;99450.09;4130481;28;20108;-64
2023/12/05 07:06:09;;;;;;;8.07;3.90;;;;;;;5.01;84.62;99453.41;4118532;28;20493;-64
2023/12/05 07:08:17;;;;;;;8.27;4.63;;;;;;;4.99;84.65;99455.06;4126228;28;20039;-64
2023/12/05 07:10:20;;;;;;;6.07;3.35;;;;;;;5.03;84.53;99468.03;4124890;28;20082;-64
2023/12/05 07:12:23;;;;;;;7.20;3.20;;;;;;;5.03;84.64;99456.88;4127855;28;20142;-65
2023/12/05 07:14:26;;;;;;;6.85;4.65;;;;;;;5.01;84.90;99469.72;4127370;28;20062;-64
2023/12/05 07:16:29;;;;;;;6.72;4.07;;;;;;;5.10;84.47;99475.91;4129055;28;20034;-64
2023/12/05 07:18:32;;;;;;;8.55;3.85;;;;;;;5.04;84.59;99486.97;4129375;28;20412;-64
2023/12/05 07:20:35;;;;;;;7.00;3.70;;;;;;;5.10;84.28;99486.22;4121647;28;20030;-65
2023/12/05 07:22:42;;;;;;;6.20;3.42;;;;;;;5.04;84.25;99487.81;4129295;28;20051;-65
2023/12/05 07:24:47;;;;;;;6.88;3.40;;;;;;;5.06;84.27;99491.28;4126963;28;20070;-65
2023/12/05 07:26:50;;;;;;;8.52;3.85;;;;;;;5.06;84.48;99504.16;4123716;28;20063;-64
2023/12/05 07:28:53;;;;;;;9.68;3.28;;;;;;;5.16;84.06;99497.50;4131785;28;20493;-65
2023/12/05 07:30:56;;;;;;;5.20;2.88;;;;;;;5.14;84.19;99500.88;4130568;28;20158;-64
2023/12/05 07:32:59;;;;;;;6.05;2.72;;;;;;;5.09;84.53;99507.66;4125406;28;20030;-64
2023/12/05 07:35:02;;;;;;;5.47;2.90;;;;;;;5.15;84.25;99508.63;4134032;28;20042;-65
2023/12/05 07:37:05;;;;;;;6.15;3.15;;;;;;;5.15;84.32;99503.47;4134127;28;20076;-64
2023/12/05 07:39:09;;;;;;;6.13;3.17;;;;;;;5.15;84.28;99511.22;4133821;28;20049;-65
2023/12/05 07:41:22;;;;;;;6.82;3.08;;;;;;;5.17;84.19;99500.94;4131788;28;20093;-65
2023/12/05 07:43:25;;;;;;;7.45;3.00;;;;;;;5.15;84.35;99502.63;4133272;28;20096;-65
2023/12/05 07:45:28;;;;;;;9.80;3.38;;;;;;;5.19;84.08;99496.69;4132237;28;20211;-65
2023/12/05 07:47:31;;;;;;;4.93;3.08;;;;;;;5.24;83.84;99505.38;4133612;28;20137;-65
2023/12/05 07:49:34;;;;;;;7.00;3.10;;;;;;;5.19;84.05;99500.13;4133377;28;20419;-65
2023/12/05 07:51:37;;;;;;;5.15;2.70;;;;;;;5.24;83.96;99510.53;4132477;28;20385;-65
2023/12/05 07:53:40;;;;;;;7.65;2.90;;;;;;;5.30;83.82;99502.06;4133433;28;20137;-65
2023/12/05 07:55:43;;;;;;;5.13;2.42;;;;;;;5.31;83.67;99506.38;4133607;28;20436;-65
2023/12/05 07:57:48;;;;;;;7.65;3.22;;;;;;;5.34;83.58;99507.28;4133016;28;20575;-65
2023/12/05 07:59:51;;;;;;;7.35;2.45;;;;;;;5.36;83.47;99517.63;4128678;28;20042;-65
2023/12/05 08:01:53;;;;;;;4.47;2.38;;;;;;;5.30;83.57;99515.84;4133169;28;20524;-65
2023/12/05 08:03:57;;;;;;;6.00;3.50;;;;;;;5.29;83.46;99519.25;4131333;28;20042;-65
2023/12/05 08:06:01;;;;;;;5.70;2.58;;;;;;;5.43;82.94;99522.06;4130488;28;20117;-65
2023/12/05 08:08:04;;;;;;;4.75;2.50;;;;;;;5.42;82.65;99518.63;4129894;28;20038;-65
2023/12/05 08:10:09;;;;;;;5.38;2.67;;;;;;;5.43;83.04;99519.50;4126155;28;20594;-65
2023/12/05 08:12:12;;;;;;;7.72;2.92;;;;;;;5.51;82.53;99511.94;4124842;28;20125;-65
2023/12/05 08:14:16;;;;;;;5.63;2.20;;;;;;;5.54;82.19;99517.16;4127248;28;20133;-64
2023/12/05 08:16:20;;;;;;;7.93;2.50;;;;;;;5.51;82.73;99523.09;4128225;28;20528;-65
2023/12/05 08:18:22;;;;;;;5.15;2.35;;;;;;;5.49;82.90;99523.91;4128543;28;20038;-64
2023/12/05 08:20:25;;;;;;;4.72;2.30;;;;;;;5.51;82.84;99530.84;4124641;28;20121;-64
2023/12/05 08:22:27;;;;;;;5.13;2.20;;;;;;;5.53;82.91;99528.28;4141490;28;20092;-65
2023/12/05 08:24:31;;;;;;;5.22;2.28;;;;;;;5.49;83.10;99527.38;4129206;28;20142;-65
2023/12/05 08:26:35;;;;;;;5.00;2.08;;;;;;;5.52;83.00;99526.53;4128967;28;20038;-65
2023/12/05 08:28:38;;;;;;;5.40;2.40;;;;;;;5.62;82.76;99531.03;4129992;28;20491;-65
2023/12/05 08:30:42;;;;;;;3.78;1.80;;;;;;;5.57;82.98;99538.69;4127829;28;20122;-64
2023/12/05 08:32:45;;;;;;;4.63;2.10;;;;;;;5.63;82.92;99539.66;4113212;28;20050;-65
2023/12/05 08:34:48;;;;;;;3.58;2.22;;;;;;;5.65;82.95;99536.28;4129780;28;20042;-64
2023/12/05 08:36:52;;;;;;;4.45;1.90;;;;;;;5.62;82.79;99535.34;4121452;28;20074;-64
2023/12/05 08:38:55;;;;;;;5.47;2.00;;;;;;;5.68;82.99;99528.59;4128898;28;20519;-65
2023/12/05 08:40:58;;;;;;;4.53;2.00;;;;;;;5.76;82.31;99534.75;4126878;28;20142;-65
2023/12/05 08:43:02;;;;;;;5.82;2.30;;;;;;;5.72;82.73;99532.97;4130219;28;20041;-65
2023/12/05 08:45:06;;;;;;;7.97;2.30;;;;;;;5.73;82.08;99536.41;4130462;28;20070;-63
2023/12/05 08:47:10;;;;;;;4.13;1.95;;;;;;;5.76;82.37;99531.31;4129702;28;20092;-64
2023/12/05 08:49:13;;;;;;;5.63;2.13;;;;;;;5.84;81.95;99544.34;4130967;28;20080;-64
2023/12/05 08:51:18;;;;;;;5.25;2.05;;;;;;;5.83;81.96;99548.63;4129418;28;20451;-64
2023/12/05 08:53:21;;;;;;;5.20;2.30;;;;;;;5.86;81.71;99546.13;4130132;28;20121;-64
2023/12/05 08:55:24;;;;;;;4.88;1.95;;;;;;;5.74;81.75;99545.91;4128600;28;20090;-64
2023/12/05 08:57:26;;;;;;;2.88;1.77;;;;;;;5.77;82.05;99549.38;4129456;28;20042;-64
2023/12/05 08:59:29;;;;;;;5.10;1.90;;;;;;;5.76;82.17;99547.63;4129079;28;20042;-64
2023/12/05 09:01:32;;;;;;;4.00;2.05;;;;;;;5.80;82.30;99551.16;4127762;28;20030;-65
2023/12/05 09:03:36;;;;;;;4.45;1.70;;;;;;;5.82;81.98;99552.03;4130741;28;20496;-64
2023/12/05 09:05:40;;;;;;;4.20;1.60;;;;;;;5.82;82.38;99553.78;4130325;28;20124;-63
2023/12/05 09:07:45;;;;;;;3.45;1.92;;;;;;;5.98;81.30;99547.22;4127939;28;20038;-64
2023/12/05 09:09:52;;;;;;;3.90;1.80;;;;;;;5.86;81.72;99556.44;4124586;28;20038;-64
2023/12/05 09:11:56;;;;;;;6.93;1.85;;;;;;;5.86;81.73;99551.28;4111955;28;20042;-64
2023/12/05 09:14:00;;;;;;;5.78;1.83;;;;;;;5.93;81.62;99553.13;4129448;28;20472;-64
2023/12/05 09:16:03;;;;;;;6.93;1.95;;;;;;;5.95;81.56;99551.44;4128773;28;20038;-64
2023/12/05 09:18:06;;;;;;;7.78;2.22;;;;;;;5.94;81.36;99551.41;4129632;28;20100;-64
2023/12/05 09:20:11;;;;;;;3.70;1.60;;;;;;;6.04;80.85;99558.50;4125465;28;20038;-64
2023/12/05 09:22:13;;;;;;;6.45;2.40;;;;;;;6.04;81.17;99565.38;4129816;28;20090;-64
2023/12/05 09:24:16;;;;;;;5.88;2.05;;;;;;;6.05;81.27;99567.97;4129337;28;20042;-65
2023/12/05 09:26:19;;;;;;;5.00;2.10;;;;;;;5.93;80.97;99563.44;4129262;28;20050;-64
2023/12/05 09:28:25;;;;;;;2.13;1.48;;;;;;;6.00;81.21;99571.31;4127423;28;20471;-64
2023/12/05 09:30:28;;;;;;;4.78;1.95;;;;;;;6.07;80.63;99575.75;4131027;28;20035;-65
2023/12/05 09:32:31;;;;;;;5.70;2.30;;;;;;;6.08;80.44;99573.19;4129454;28;20038;-65
2023/12/05 09:34:34;;;;;;;4.53;1.80;;;;;;;6.06;80.53;99586.91;4129514;28;20046;-64
2023/12/05 09:36:39;;;;;;;5.18;1.90;;;;;;;5.98;80.82;99588.50;4128832;28;20041;-64
2023/12/05 09:39:06;;;;;;;8.43;2.33;;;;;;;6.10;80.75;99580.97;4127787;28;20037;-65
2023/12/05 09:41:12;;;;;;;8.32;2.40;;;;;;;6.09;80.74;99585.28;4129223;28;20057;-64